Main page
METAR-TAF:

METAR-TAF

Airports :

Gran Canaria Airport

Gran Canaria, Spain

latitude: 27-56N, longitude: 015-23W, elevation: 23 m

Current weather observation

The report was made 29 minutes ago, at 22:00 UTC
Wind 20 kt from the North
Temperature 23°C
Humidity 73%
Pressure 1018 hPa
Visibility 10 km or more
Few clouds at a height of 2500 ft

METAR: GCLP 092200Z 01020KT 9999 FEW025 23/18 Q1018 NOSIG

Time: 23:29 (22:29 UTC)

Forecast

The report was made 2 hours and 29 minutes ago, at 20:00 UTC
Forecast valid from 09 at 21 UTC to 10 at 21 UTC
Wind 22 kt from the North
Visibility 10 km or more
Scattered clouds at a height of 2500 ft
Probability 30% :
Temporary
from 10 at 11 UTC to 10 at 19 UTC
Wind 25 kt from the North with gusts up to 35 kt

TAF: GCLP 092000Z 0921/1021 01022KT 9999 SCT025 TX26/1014Z TN21/1006Z PROB30 TEMPO 1011/1019 01025G35KT

Weather observations and forecasts of more than 4000 airports (METAR and TAF reports).

The available stations are represented by yellow and red dots on the map.

Hover mouse over dot to see the name of the station.

Then click to see weather observations and forecasts.

To change the map : click on the green buttons with a black cross to zoom in, on the green button with a dash to zoom out, or on the green arrows for adjacent maps.


METAR-TAF: